»·PEaware :: JUS224 KPSP-KVGT

JUS224 :: KPSP-KVGT

FLIGHT INFORMATION

Flight Status: Arrived
Operator:
USA Jet
More flights by this operator :: More flights under this callsign
Pilot: Riley M. (10391)
Aircraft: BOEING 737-300
(B733)
More flights by this aircraft type
Origin: KPSP Palm Springs Intl
United States
Destination: KVGT North Las Vegas
United States
More flights between these airports :: More routes between these airports
Route: +CATH1 TNP CLARR2
File this flight plan on PilotEdge
Remarks:
Altitude:
(Current/Filed)
25,000ft
Speed:
(Current/Filed)
410kts
Departed: 03-Sep-16 07:01 PM
Arrived: 03-Sep-16 08:13 PM
Distance/Time
Traveled:
157nm/1:12
Distance/Time
To Go:
Arrived

Flight Plot

Page will automatically refresh every two minutes.

Flight plan parsing failed; only flown route is shown


Map Options




Map Legend


Flown Route
Filed Route
Departure Airport
Arrival Airport
Navaid (VOR, NDB)
Fix

Horizontal Profiles

Position Reports

Time Latitude Longitude Heading Altitude Ground
Speed
03-Sep-16 18:38 33.826907 -116.500474 320 484ft 0kts
03-Sep-16 18:39 33.826907 -116.500474 320 484ft 0kts
03-Sep-16 18:40 33.826907 -116.500474 320 484ft 0kts
03-Sep-16 18:41 33.826907 -116.500474 320 484ft 0kts
03-Sep-16 18:42 33.826907 -116.500474 320 484ft 0kts
03-Sep-16 18:43 33.826907 -116.500474 320 484ft 0kts
03-Sep-16 18:44 33.826907 -116.500474 320 484ft 0kts
03-Sep-16 18:45 33.826907 -116.500474 320 484ft 0kts
03-Sep-16 18:46 33.826907 -116.500474 320 484ft 0kts
03-Sep-16 18:47 33.826907 -116.500474 320 484ft 0kts
03-Sep-16 18:48 33.826907 -116.500474 320 484ft 0kts
03-Sep-16 18:49 33.826988 -116.500549 322 484ft 0kts
03-Sep-16 18:50 33.827079 -116.500931 248 484ft 0kts
03-Sep-16 18:51 33.827079 -116.500931 248 484ft 0kts
03-Sep-16 18:52 33.827079 -116.500931 248 484ft 0kts
03-Sep-16 18:53 33.827074 -116.500946 248 484ft 1kts
03-Sep-16 18:54 33.826714 -116.501832 233 484ft 9kts
03-Sep-16 18:55 33.825617 -116.502441 143 484ft 12kts
03-Sep-16 18:56 33.823181 -116.500227 142 484ft 28kts
03-Sep-16 18:57 33.819630 -116.497066 150 484ft 18kts
03-Sep-16 18:58 33.819201 -116.497096 212 484ft 0kts
03-Sep-16 18:59 33.820721 -116.499665 323 484ft 76kts
03-Sep-16 19:00 33.833880 -116.513104 319 1462ft 151kts
03-Sep-16 19:01 33.846516 -116.529040 320 2576ft 174kts
03-Sep-16 19:02 33.871991 -116.540073 19 3792ft 229kts
03-Sep-16 19:03 33.887457 -116.500732 105 6032ft 264kts
03-Sep-16 19:04 33.876846 -116.461196 112 8049ft 279kts
03-Sep-16 19:05 33.861958 -116.418913 93 10245ft 289kts
03-Sep-16 19:06 33.882246 -116.357380 62 12114ft 333kts
03-Sep-16 19:07 33.913591 -116.281853 64 15179ft 346kts
03-Sep-16 19:08 33.934683 -116.228675 64 17032ft 356kts
03-Sep-16 19:09 33.959954 -116.164351 64 19069ft 367kts
03-Sep-16 19:10 33.981738 -116.108706 64 20665ft 376kts
03-Sep-16 19:11 34.007140 -116.043664 64 22370ft 386kts
03-Sep-16 19:12 34.040611 -115.957747 64 24412ft 399kts
03-Sep-16 19:13 34.076710 -115.865310 64 24963ft 395kts
03-Sep-16 19:14 34.107404 -115.786788 65 24991ft 339kts
03-Sep-16 19:15 34.152232 -115.726235 42 24982ft 352kts
03-Sep-16 19:16 34.207718 -115.664840 42 25004ft 349kts
03-Sep-16 19:17 34.250095 -115.617240 42 24998ft 350kts
03-Sep-16 19:18 34.303099 -115.557503 43 25000ft 350kts
03-Sep-16 19:19 34.355968 -115.516462 18 24997ft 350kts
03-Sep-16 19:20 34.421159 -115.489443 19 25002ft 350kts
03-Sep-16 19:21 34.487499 -115.460794 19 24999ft 350kts
03-Sep-16 19:22 34.545671 -115.435456 19 25000ft 350kts
03-Sep-16 19:23 34.588668 -115.416687 19 25000ft 350kts
03-Sep-16 19:24 34.665561 -115.383063 19 25000ft 350kts
03-Sep-16 19:25 34.727858 -115.355773 19 25000ft 350kts
03-Sep-16 19:26 34.800250 -115.324006 19 25000ft 350kts
03-Sep-16 19:27 34.892107 -115.283611 19 24401ft 384kts
03-Sep-16 19:28 34.980556 -115.244631 19 23951ft 350kts
03-Sep-16 19:29 35.067316 -115.206284 19 23582ft 364kts
03-Sep-16 19:30 35.151107 -115.191105 329 22040ft 347kts
03-Sep-16 19:31 35.213781 -115.250565 322 20812ft 340kts
03-Sep-16 19:32 35.276513 -115.308853 322 20446ft 333kts
03-Sep-16 19:33 35.342252 -115.369507 322 19311ft 342kts
03-Sep-16 19:34 35.404278 -115.426787 322 18098ft 338kts
03-Sep-16 19:35 35.468891 -115.486579 322 16794ft 332kts
03-Sep-16 19:36 35.530237 -115.543455 322 15531ft 326kts
03-Sep-16 19:37 35.583885 -115.593303 322 14404ft 320kts
03-Sep-16 19:38 35.637614 -115.643310 322 13370ft 313kts
03-Sep-16 19:39 35.706107 -115.642016 43 13221ft 314kts
03-Sep-16 19:40 35.749984 -115.579982 51 12050ft 299kts
03-Sep-16 19:41 35.794315 -115.512219 51 10752ft 291kts
03-Sep-16 19:42 35.839442 -115.442849 51 9393ft 282kts
03-Sep-16 19:43 35.876198 -115.385993 51 8246ft 274kts
03-Sep-16 19:44 35.904950 -115.341254 51 7437ft 265kts
03-Sep-16 19:45 35.931875 -115.299210 51 7266ft 251kts
03-Sep-16 19:46 35.959100 -115.256603 51 7296ft 233kts
03-Sep-16 19:47 35.985927 -115.214604 51 7265ft 236kts
03-Sep-16 19:48 36.019074 -115.162657 51 7280ft 236kts
03-Sep-16 19:49 36.044518 -115.122703 51 7275ft 236kts
03-Sep-16 19:50 36.070381 -115.082550 42 7270ft 236kts
03-Sep-16 19:51 36.099783 -115.069071 11 7260ft 211kts
03-Sep-16 19:52 36.131666 -115.061227 11 7291ft 211kts
03-Sep-16 19:53 36.176059 -115.050349 11 7237ft 195kts
03-Sep-16 19:54 36.222880 -115.057716 332 5716ft 222kts
03-Sep-16 19:55 36.274268 -115.092604 332 3946ft 205kts
03-Sep-16 19:56 36.312194 -115.125790 301 4125ft 171kts
03-Sep-16 19:57 36.327471 -115.167308 284 5131ft 177kts
03-Sep-16 19:58 36.313965 -115.208085 232 4977ft 169kts
03-Sep-16 19:59 36.290516 -115.237956 218 3965ft 149kts
03-Sep-16 20:00 36.261800 -115.248754 173 3464ft 142kts
03-Sep-16 20:01 36.240632 -115.236390 131 2979ft 148kts
03-Sep-16 20:02 36.223529 -115.214076 133 2529ft 153kts
03-Sep-16 20:03 36.205164 -115.190621 129 2755ft 148kts
03-Sep-16 20:04 36.184157 -115.171137 191 3141ft 158kts
03-Sep-16 20:05 36.170208 -115.196350 306 2968ft 140kts
03-Sep-16 20:06 36.189865 -115.220668 317 2932ft 143kts
03-Sep-16 20:07 36.207655 -115.243982 311 3096ft 141kts
03-Sep-16 20:08 36.228555 -115.243769 67 2844ft 124kts
03-Sep-16 20:09 36.223567 -115.213940 124 2443ft 123kts
03-Sep-16 20:10 36.208656 -115.195045 133 2212ft 45kts
03-Sep-16 20:11 36.205109 -115.190757 171 2212ft 1kts
03-Sep-16 20:12 36.204903 -115.191431 316 2212ft 13kts
03-Sep-16 20:13 36.206420 -115.193318 314 2212ft 15kts
03-Sep-16 20:14 36.207859 -115.195657 271 2212ft 6kts
03-Sep-16 20:15 36.208683 -115.197646 320 2212ft 1kts
03-Sep-16 20:16 36.208684 -115.197646 320 2212ft 0kts

Navigation Log

Ident Type
Flight plan parsing failed, navigation log unavailable